sensor_id;sensor_type;location;lat;lon;timestamp;temperature;humidity
16408;DHT22;8313;49.894;8.084;2023-11-22T00:00:44;7.20;99.90
16408;DHT22;8313;49.894;8.084;2023-11-22T00:03:10;7.30;99.90
16408;DHT22;8313;49.894;8.084;2023-11-22T00:05:35;7.30;99.90
16408;DHT22;8313;49.894;8.084;2023-11-22T00:08:01;7.30;99.90
16408;DHT22;8313;49.894;8.084;2023-11-22T00:10:27;7.30;99.90
16408;DHT22;8313;49.894;8.084;2023-11-22T00:12:53;7.30;99.90
16408;DHT22;8313;49.894;8.084;2023-11-22T00:15:19;7.30;99.90
16408;DHT22;8313;49.894;8.084;2023-11-22T00:17:45;7.30;99.90
16408;DHT22;8313;49.894;8.084;2023-11-22T00:20:11;7.30;99.90
16408;DHT22;8313;49.894;8.084;2023-11-22T00:22:37;7.40;99.90
16408;DHT22;8313;49.894;8.084;2023-11-22T00:25:03;7.30;99.90
16408;DHT22;8313;49.894;8.084;2023-11-22T00:27:30;7.30;99.90
16408;DHT22;8313;49.894;8.084;2023-11-22T00:29:57;7.30;99.90
16408;DHT22;8313;49.894;8.084;2023-11-22T00:32:24;7.40;99.90
16408;DHT22;8313;49.894;8.084;2023-11-22T00:34:49;7.30;99.90
16408;DHT22;8313;49.894;8.084;2023-11-22T00:37:15;7.30;99.90
16408;DHT22;8313;49.894;8.084;2023-11-22T00:39:42;7.30;99.90
16408;DHT22;8313;49.894;8.084;2023-11-22T00:42:08;7.30;99.90
16408;DHT22;8313;49.894;8.084;2023-11-22T00:44:34;7.30;99.90
16408;DHT22;8313;49.894;8.084;2023-11-22T00:47:02;7.20;99.90
16408;DHT22;8313;49.894;8.084;2023-11-22T00:49:27;7.20;99.90
16408;DHT22;8313;49.894;8.084;2023-11-22T00:51:53;7.20;99.90
16408;DHT22;8313;49.894;8.084;2023-11-22T00:54:19;7.20;99.90
16408;DHT22;8313;49.894;8.084;2023-11-22T00:56:46;7.30;99.90
16408;DHT22;8313;49.894;8.084;2023-11-22T00:59:12;7.20;99.90
16408;DHT22;8313;49.894;8.084;2023-11-22T01:01:39;7.20;99.90
16408;DHT22;8313;49.894;8.084;2023-11-22T01:04:05;7.10;99.90
16408;DHT22;8313;49.894;8.084;2023-11-22T01:06:34;7.10;99.90
16408;DHT22;8313;49.894;8.084;2023-11-22T01:09:00;7.10;99.90
16408;DHT22;8313;49.894;8.084;2023-11-22T01:11:25;7.10;99.90
16408;DHT22;8313;49.894;8.084;2023-11-22T01:13:51;7.00;99.90
16408;DHT22;8313;49.894;8.084;2023-11-22T01:16:17;7.00;99.90
16408;DHT22;8313;49.894;8.084;2023-11-22T01:18:43;6.90;99.90
16408;DHT22;8313;49.894;8.084;2023-11-22T01:21:11;6.80;99.90
16408;DHT22;8313;49.894;8.084;2023-11-22T01:23:37;6.80;99.90
16408;DHT22;8313;49.894;8.084;2023-11-22T01:26:02;6.60;99.90
16408;DHT22;8313;49.894;8.084;2023-11-22T01:28:28;6.50;99.90
16408;DHT22;8313;49.894;8.084;2023-11-22T01:30:55;6.50;99.90
16408;DHT22;8313;49.894;8.084;2023-11-22T01:33:23;6.40;99.90
16408;DHT22;8313;49.894;8.084;2023-11-22T01:35:49;6.30;99.90
16408;DHT22;8313;49.894;8.084;2023-11-22T01:38:18;6.30;99.90
16408;DHT22;8313;49.894;8.084;2023-11-22T01:40:45;6.20;99.90
16408;DHT22;8313;49.894;8.084;2023-11-22T01:43:18;6.10;99.90
16408;DHT22;8313;49.894;8.084;2023-11-22T01:45:44;6.10;99.90
16408;DHT22;8313;49.894;8.084;2023-11-22T01:48:11;6.00;99.90
16408;DHT22;8313;49.894;8.084;2023-11-22T01:50:40;6.10;99.90
16408;DHT22;8313;49.894;8.084;2023-11-22T01:53:10;6.20;99.90
16408;DHT22;8313;49.894;8.084;2023-11-22T01:55:36;6.30;99.90
16408;DHT22;8313;49.894;8.084;2023-11-22T01:58:02;6.30;99.90
16408;DHT22;8313;49.894;8.084;2023-11-22T02:00:35;6.40;99.90
16408;DHT22;8313;49.894;8.084;2023-11-22T02:03:02;6.30;99.90
16408;DHT22;8313;49.894;8.084;2023-11-22T02:05:28;6.20;99.90
16408;DHT22;8313;49.894;8.084;2023-11-22T02:07:54;6.10;99.90
16408;DHT22;8313;49.894;8.084;2023-11-22T02:10:20;6.10;99.90
16408;DHT22;8313;49.894;8.084;2023-11-22T02:12:46;5.90;99.90
16408;DHT22;8313;49.894;8.084;2023-11-22T02:15:12;5.90;99.90
16408;DHT22;8313;49.894;8.084;2023-11-22T02:17:38;5.90;99.90
16408;DHT22;8313;49.894;8.084;2023-11-22T02:20:05;5.80;99.90
16408;DHT22;8313;49.894;8.084;2023-11-22T02:22:41;5.80;99.90
16408;DHT22;8313;49.894;8.084;2023-11-22T02:25:07;5.80;99.90
16408;DHT22;8313;49.894;8.084;2023-11-22T02:27:33;5.70;99.90
16408;DHT22;8313;49.894;8.084;2023-11-22T02:29:58;5.80;99.90
16408;DHT22;8313;49.894;8.084;2023-11-22T02:32:24;5.80;99.90
16408;DHT22;8313;49.894;8.084;2023-11-22T02:34:51;5.70;99.90
16408;DHT22;8313;49.894;8.084;2023-11-22T02:37:17;5.80;99.90
16408;DHT22;8313;49.894;8.084;2023-11-22T02:42:19;5.70;99.90
16408;DHT22;8313;49.894;8.084;2023-11-22T02:44:45;5.60;99.90
16408;DHT22;8313;49.894;8.084;2023-11-22T02:47:11;5.60;99.90
16408;DHT22;8313;49.894;8.084;2023-11-22T02:49:36;5.70;99.90
16408;DHT22;8313;49.894;8.084;2023-11-22T02:52:02;5.70;99.90
16408;DHT22;8313;49.894;8.084;2023-11-22T02:54:28;5.80;99.90
16408;DHT22;8313;49.894;8.084;2023-11-22T02:56:54;5.80;99.90
16408;DHT22;8313;49.894;8.084;2023-11-22T02:59:20;5.80;99.90
16408;DHT22;8313;49.894;8.084;2023-11-22T03:01:46;5.80;99.90
16408;DHT22;8313;49.894;8.084;2023-11-22T03:04:12;5.70;99.90
16408;DHT22;8313;49.894;8.084;2023-11-22T03:06:37;5.60;99.90
16408;DHT22;8313;49.894;8.084;2023-11-22T03:09:03;5.60;99.90
16408;DHT22;8313;49.894;8.084;2023-11-22T03:11:30;5.50;99.90
16408;DHT22;8313;49.894;8.084;2023-11-22T03:13:55;5.50;99.90
16408;DHT22;8313;49.894;8.084;2023-11-22T03:16:21;5.50;99.90
16408;DHT22;8313;49.894;8.084;2023-11-22T03:18:47;5.50;99.90
16408;DHT22;8313;49.894;8.084;2023-11-22T03:21:12;5.50;99.90
16408;DHT22;8313;49.894;8.084;2023-11-22T03:23:38;5.60;99.90
16408;DHT22;8313;49.894;8.084;2023-11-22T03:26:05;5.50;99.90
16408;DHT22;8313;49.894;8.084;2023-11-22T03:28:31;5.50;99.90
16408;DHT22;8313;49.894;8.084;2023-11-22T03:30:58;5.50;99.90
16408;DHT22;8313;49.894;8.084;2023-11-22T03:33:24;5.50;99.90
16408;DHT22;8313;49.894;8.084;2023-11-22T03:35:50;5.40;99.90
16408;DHT22;8313;49.894;8.084;2023-11-22T03:38:16;5.50;99.90
16408;DHT22;8313;49.894;8.084;2023-11-22T03:40:42;5.50;99.90
16408;DHT22;8313;49.894;8.084;2023-11-22T03:43:08;5.50;99.90
16408;DHT22;8313;49.894;8.084;2023-11-22T03:45:35;5.50;99.90
16408;DHT22;8313;49.894;8.084;2023-11-22T03:48:01;5.50;99.90
16408;DHT22;8313;49.894;8.084;2023-11-22T03:50:27;5.50;99.90
16408;DHT22;8313;49.894;8.084;2023-11-22T03:52:52;5.50;99.90
16408;DHT22;8313;49.894;8.084;2023-11-22T03:55:18;5.40;99.90
16408;DHT22;8313;49.894;8.084;2023-11-22T03:57:43;5.30;99.90
16408;DHT22;8313;49.894;8.084;2023-11-22T04:00:10;5.30;99.90
16408;DHT22;8313;49.894;8.084;2023-11-22T04:02:38;5.40;99.90
16408;DHT22;8313;49.894;8.084;2023-11-22T04:05:05;5.40;99.90
16408;DHT22;8313;49.894;8.084;2023-11-22T04:07:32;5.40;99.90
16408;DHT22;8313;49.894;8.084;2023-11-22T04:09:59;5.30;99.90
16408;DHT22;8313;49.894;8.084;2023-11-22T04:12:24;5.20;99.90
16408;DHT22;8313;49.894;8.084;2023-11-22T04:14:50;5.20;99.90
16408;DHT22;8313;49.894;8.084;2023-11-22T04:17:17;5.20;99.90
16408;DHT22;8313;49.894;8.084;2023-11-22T04:19:43;5.20;99.90
16408;DHT22;8313;49.894;8.084;2023-11-22T04:22:09;5.10;99.90
16408;DHT22;8313;49.894;8.084;2023-11-22T04:24:36;5.10;99.90
16408;DHT22;8313;49.894;8.084;2023-11-22T04:27:01;5.20;99.90
16408;DHT22;8313;49.894;8.084;2023-11-22T04:29:28;5.20;99.90
16408;DHT22;8313;49.894;8.084;2023-11-22T04:31:53;5.20;99.90
16408;DHT22;8313;49.894;8.084;2023-11-22T04:34:19;5.10;99.90
16408;DHT22;8313;49.894;8.084;2023-11-22T04:36:45;5.10;99.90
16408;DHT22;8313;49.894;8.084;2023-11-22T04:39:12;5.10;99.90
16408;DHT22;8313;49.894;8.084;2023-11-22T04:41:38;5.10;99.90
16408;DHT22;8313;49.894;8.084;2023-11-22T04:44:04;5.00;99.90
16408;DHT22;8313;49.894;8.084;2023-11-22T04:46:30;5.10;99.90
16408;DHT22;8313;49.894;8.084;2023-11-22T04:48:56;5.10;99.90
16408;DHT22;8313;49.894;8.084;2023-11-22T04:51:23;5.00;99.90
16408;DHT22;8313;49.894;8.084;2023-11-22T04:53:50;5.00;99.90
16408;DHT22;8313;49.894;8.084;2023-11-22T04:56:17;4.90;99.90
16408;DHT22;8313;49.894;8.084;2023-11-22T04:58:42;4.80;99.90
16408;DHT22;8313;49.894;8.084;2023-11-22T05:01:08;4.90;99.90
16408;DHT22;8313;49.894;8.084;2023-11-22T05:03:35;4.90;99.90
16408;DHT22;8313;49.894;8.084;2023-11-22T05:06:00;4.90;99.90
16408;DHT22;8313;49.894;8.084;2023-11-22T05:08:26;4.80;99.90
16408;DHT22;8313;49.894;8.084;2023-11-22T05:10:53;4.80;99.90
16408;DHT22;8313;49.894;8.084;2023-11-22T05:13:18;4.80;99.90
16408;DHT22;8313;49.894;8.084;2023-11-22T05:15:44;4.90;99.90
16408;DHT22;8313;49.894;8.084;2023-11-22T05:18:09;4.80;99.90
16408;DHT22;8313;49.894;8.084;2023-11-22T05:20:35;4.80;99.90
16408;DHT22;8313;49.894;8.084;2023-11-22T05:23:01;4.70;99.90
16408;DHT22;8313;49.894;8.084;2023-11-22T05:25:27;4.70;99.90
16408;DHT22;8313;49.894;8.084;2023-11-22T05:27:52;4.80;99.90
16408;DHT22;8313;49.894;8.084;2023-11-22T05:30:18;4.80;99.90
16408;DHT22;8313;49.894;8.084;2023-11-22T05:32:43;4.80;99.90
16408;DHT22;8313;49.894;8.084;2023-11-22T05:35:09;4.80;99.90
16408;DHT22;8313;49.894;8.084;2023-11-22T05:37:36;4.80;99.90
16408;DHT22;8313;49.894;8.084;2023-11-22T05:40:03;4.70;99.90
16408;DHT22;8313;49.894;8.084;2023-11-22T05:42:30;4.70;99.90
16408;DHT22;8313;49.894;8.084;2023-11-22T05:44:56;4.60;99.90
16408;DHT22;8313;49.894;8.084;2023-11-22T05:47:22;4.60;99.90
16408;DHT22;8313;49.894;8.084;2023-11-22T05:49:47;4.60;99.90
16408;DHT22;8313;49.894;8.084;2023-11-22T05:52:13;4.60;99.90
16408;DHT22;8313;49.894;8.084;2023-11-22T05:54:39;4.50;99.90
16408;DHT22;8313;49.894;8.084;2023-11-22T05:57:04;4.40;99.90
16408;DHT22;8313;49.894;8.084;2023-11-22T05:59:30;4.40;99.90
16408;DHT22;8313;49.894;8.084;2023-11-22T06:01:56;4.40;99.90
16408;DHT22;8313;49.894;8.084;2023-11-22T06:04:22;4.30;99.90
16408;DHT22;8313;49.894;8.084;2023-11-22T06:06:47;4.30;99.90
16408;DHT22;8313;49.894;8.084;2023-11-22T06:09:13;4.20;99.90
16408;DHT22;8313;49.894;8.084;2023-11-22T06:11:40;4.10;99.90
16408;DHT22;8313;49.894;8.084;2023-11-22T06:14:05;4.00;99.90
16408;DHT22;8313;49.894;8.084;2023-11-22T06:16:32;4.10;99.90
16408;DHT22;8313;49.894;8.084;2023-11-22T06:18:58;4.00;99.90
16408;DHT22;8313;49.894;8.084;2023-11-22T06:21:24;4.10;99.90
16408;DHT22;8313;49.894;8.084;2023-11-22T06:23:53;4.10;99.90
16408;DHT22;8313;49.894;8.084;2023-11-22T06:26:20;4.00;99.90
16408;DHT22;8313;49.894;8.084;2023-11-22T06:28:46;4.10;99.90
16408;DHT22;8313;49.894;8.084;2023-11-22T06:31:14;4.20;99.90
16408;DHT22;8313;49.894;8.084;2023-11-22T06:33:40;4.20;99.90
16408;DHT22;8313;49.894;8.084;2023-11-22T06:36:06;4.20;99.90
16408;DHT22;8313;49.894;8.084;2023-11-22T06:38:32;4.10;99.90
16408;DHT22;8313;49.894;8.084;2023-11-22T06:40:58;4.20;99.90
16408;DHT22;8313;49.894;8.084;2023-11-22T06:43:23;4.20;99.90
16408;DHT22;8313;49.894;8.084;2023-11-22T06:45:49;4.20;99.90
16408;DHT22;8313;49.894;8.084;2023-11-22T06:48:16;4.20;99.90
16408;DHT22;8313;49.894;8.084;2023-11-22T06:50:42;4.10;99.90
16408;DHT22;8313;49.894;8.084;2023-11-22T06:53:07;4.20;99.90
16408;DHT22;8313;49.894;8.084;2023-11-22T06:55:33;4.20;99.90
16408;DHT22;8313;49.894;8.084;2023-11-22T06:57:59;4.20;99.90
16408;DHT22;8313;49.894;8.084;2023-11-22T07:00:24;4.10;99.90
16408;DHT22;8313;49.894;8.084;2023-11-22T07:02:56;4.10;99.90
16408;DHT22;8313;49.894;8.084;2023-11-22T07:05:21;4.10;99.90
16408;DHT22;8313;49.894;8.084;2023-11-22T07:07:48;4.00;99.90
16408;DHT22;8313;49.894;8.084;2023-11-22T07:10:15;3.90;99.90
16408;DHT22;8313;49.894;8.084;2023-11-22T07:12:41;4.10;99.90
16408;DHT22;8313;49.894;8.084;2023-11-22T07:15:09;4.10;99.90
16408;DHT22;8313;49.894;8.084;2023-11-22T07:17:35;4.10;99.90
16408;DHT22;8313;49.894;8.084;2023-11-22T07:20:01;4.10;99.90
16408;DHT22;8313;49.894;8.084;2023-11-22T07:22:26;4.20;99.90
16408;DHT22;8313;49.894;8.084;2023-11-22T07:24:53;4.20;99.90
16408;DHT22;8313;49.894;8.084;2023-11-22T07:27:25;4.20;99.90
16408;DHT22;8313;49.894;8.084;2023-11-22T07:29:51;4.10;99.90
16408;DHT22;8313;49.894;8.084;2023-11-22T07:32:17;4.20;99.90
16408;DHT22;8313;49.894;8.084;2023-11-22T07:34:45;4.20;99.90
16408;DHT22;8313;49.894;8.084;2023-11-22T07:37:11;4.30;99.90
16408;DHT22;8313;49.894;8.084;2023-11-22T07:39:38;4.40;99.90
16408;DHT22;8313;49.894;8.084;2023-11-22T07:42:08;4.40;99.90
16408;DHT22;8313;49.894;8.084;2023-11-22T07:44:36;4.50;99.90
16408;DHT22;8313;49.894;8.084;2023-11-22T07:47:03;4.50;99.90
16408;DHT22;8313;49.894;8.084;2023-11-22T07:49:33;4.50;99.90
16408;DHT22;8313;49.894;8.084;2023-11-22T07:52:02;4.50;99.90
16408;DHT22;8313;49.894;8.084;2023-11-22T07:54:28;4.50;99.90
16408;DHT22;8313;49.894;8.084;2023-11-22T07:56:55;4.50;99.90
16408;DHT22;8313;49.894;8.084;2023-11-22T07:59:21;4.50;99.90
16408;DHT22;8313;49.894;8.084;2023-11-22T08:01:47;4.40;99.90
16408;DHT22;8313;49.894;8.084;2023-11-22T08:04:16;4.50;99.90
16408;DHT22;8313;49.894;8.084;2023-11-22T08:06:44;4.50;99.90
16408;DHT22;8313;49.894;8.084;2023-11-22T08:09:11;4.50;99.90
16408;DHT22;8313;49.894;8.084;2023-11-22T08:11:36;4.40;99.90
16408;DHT22;8313;49.894;8.084;2023-11-22T08:14:02;4.40;99.90
16408;DHT22;8313;49.894;8.084;2023-11-22T08:16:28;4.40;99.90
16408;DHT22;8313;49.894;8.084;2023-11-22T08:18:54;4.40;99.90
16408;DHT22;8313;49.894;8.084;2023-11-22T08:21:22;4.40;99.90
16408;DHT22;8313;49.894;8.084;2023-11-22T08:23:48;4.30;99.90
16408;DHT22;8313;49.894;8.084;2023-11-22T08:26:14;4.30;99.90
16408;DHT22;8313;49.894;8.084;2023-11-22T08:28:40;4.40;99.90
16408;DHT22;8313;49.894;8.084;2023-11-22T08:31:06;4.40;99.90
16408;DHT22;8313;49.894;8.084;2023-11-22T08:33:35;4.40;99.90
16408;DHT22;8313;49.894;8.084;2023-11-22T08:36:01;4.40;99.90
16408;DHT22;8313;49.894;8.084;2023-11-22T08:38:28;4.50;99.90
16408;DHT22;8313;49.894;8.084;2023-11-22T08:40:53;4.50;99.90
16408;DHT22;8313;49.894;8.084;2023-11-22T08:43:20;4.30;99.90
16408;DHT22;8313;49.894;8.084;2023-11-22T08:45:51;4.30;99.90
16408;DHT22;8313;49.894;8.084;2023-11-22T08:48:17;4.30;99.90
16408;DHT22;8313;49.894;8.084;2023-11-22T08:50:43;4.30;99.90
16408;DHT22;8313;49.894;8.084;2023-11-22T08:53:10;4.30;99.90
16408;DHT22;8313;49.894;8.084;2023-11-22T08:55:36;4.20;99.90
16408;DHT22;8313;49.894;8.084;2023-11-22T08:58:01;4.30;99.90
16408;DHT22;8313;49.894;8.084;2023-11-22T09:00:27;4.30;99.90
16408;DHT22;8313;49.894;8.084;2023-11-22T09:02:54;4.20;99.90
16408;DHT22;8313;49.894;8.084;2023-11-22T09:05:23;4.20;99.90
16408;DHT22;8313;49.894;8.084;2023-11-22T09:07:49;4.10;99.90
16408;DHT22;8313;49.894;8.084;2023-11-22T09:10:16;4.10;99.90
16408;DHT22;8313;49.894;8.084;2023-11-22T09:12:44;4.10;99.90
16408;DHT22;8313;49.894;8.084;2023-11-22T09:15:11;4.10;99.90
16408;DHT22;8313;49.894;8.084;2023-11-22T09:17:39;4.20;99.90
16408;DHT22;8313;49.894;8.084;2023-11-22T09:20:18;4.20;99.90
16408;DHT22;8313;49.894;8.084;2023-11-22T09:22:54;4.30;99.90
16408;DHT22;8313;49.894;8.084;2023-11-22T09:27:46;4.30;99.90
16408;DHT22;8313;49.894;8.084;2023-11-22T09:30:16;4.30;99.90
16408;DHT22;8313;49.894;8.084;2023-11-22T09:33:08;4.40;99.90
16408;DHT22;8313;49.894;8.084;2023-11-22T09:35:38;4.50;99.90
16408;DHT22;8313;49.894;8.084;2023-11-22T09:38:08;4.40;99.90
16408;DHT22;8313;49.894;8.084;2023-11-22T09:40:41;4.40;99.90
16408;DHT22;8313;49.894;8.084;2023-11-22T09:43:07;4.40;99.90
16408;DHT22;8313;49.894;8.084;2023-11-22T09:45:32;4.40;99.90
16408;DHT22;8313;49.894;8.084;2023-11-22T09:47:59;4.60;99.90
16408;DHT22;8313;49.894;8.084;2023-11-22T09:50:43;4.50;99.90
16408;DHT22;8313;49.894;8.084;2023-11-22T09:53:22;4.60;99.90
16408;DHT22;8313;49.894;8.084;2023-11-22T09:55:50;4.50;99.90
16408;DHT22;8313;49.894;8.084;2023-11-22T09:58:17;4.40;99.90
16408;DHT22;8313;49.894;8.084;2023-11-22T10:00:43;4.30;99.90
16408;DHT22;8313;49.894;8.084;2023-11-22T10:03:10;4.30;99.90
16408;DHT22;8313;49.894;8.084;2023-11-22T10:05:39;4.40;99.90
16408;DHT22;8313;49.894;8.084;2023-11-22T10:08:07;4.50;99.90
16408;DHT22;8313;49.894;8.084;2023-11-22T10:10:36;4.40;99.90
16408;DHT22;8313;49.894;8.084;2023-11-22T10:13:02;4.30;99.90
16408;DHT22;8313;49.894;8.084;2023-11-22T10:15:29;4.40;99.90
16408;DHT22;8313;49.894;8.084;2023-11-22T10:17:59;4.50;99.90
16408;DHT22;8313;49.894;8.084;2023-11-22T10:23:08;4.60;99.90
16408;DHT22;8313;49.894;8.084;2023-11-22T10:25:36;4.60;99.90
16408;DHT22;8313;49.894;8.084;2023-11-22T10:28:02;4.60;99.90
16408;DHT22;8313;49.894;8.084;2023-11-22T10:30:27;4.60;99.90
16408;DHT22;8313;49.894;8.084;2023-11-22T10:32:54;4.70;99.90
16408;DHT22;8313;49.894;8.084;2023-11-22T10:35:21;4.80;99.90
16408;DHT22;8313;49.894;8.084;2023-11-22T10:37:48;4.70;99.90
16408;DHT22;8313;49.894;8.084;2023-11-22T10:40:14;4.80;99.90
16408;DHT22;8313;49.894;8.084;2023-11-22T10:42:41;4.90;99.90
16408;DHT22;8313;49.894;8.084;2023-11-22T10:45:09;4.90;99.90
16408;DHT22;8313;49.894;8.084;2023-11-22T10:47:38;4.80;99.90
16408;DHT22;8313;49.894;8.084;2023-11-22T10:50:07;4.70;99.90
16408;DHT22;8313;49.894;8.084;2023-11-22T10:52:35;4.70;99.90
16408;DHT22;8313;49.894;8.084;2023-11-22T10:55:05;4.60;99.90
16408;DHT22;8313;49.894;8.084;2023-11-22T10:57:40;4.60;99.90
16408;DHT22;8313;49.894;8.084;2023-11-22T11:00:09;4.50;99.90
16408;DHT22;8313;49.894;8.084;2023-11-22T11:02:44;4.60;99.90
16408;DHT22;8313;49.894;8.084;2023-11-22T11:05:21;4.70;99.90
16408;DHT22;8313;49.894;8.084;2023-11-22T11:08:08;4.70;99.90
16408;DHT22;8313;49.894;8.084;2023-11-22T11:10:41;4.90;99.90
16408;DHT22;8313;49.894;8.084;2023-11-22T11:13:08;4.80;99.90
16408;DHT22;8313;49.894;8.084;2023-11-22T11:15:39;4.90;99.90
16408;DHT22;8313;49.894;8.084;2023-11-22T11:18:06;4.90;99.90
16408;DHT22;8313;49.894;8.084;2023-11-22T11:20:44;4.90;99.90
16408;DHT22;8313;49.894;8.084;2023-11-22T11:23:13;4.80;99.90
16408;DHT22;8313;49.894;8.084;2023-11-22T11:25:41;4.80;99.90
16408;DHT22;8313;49.894;8.084;2023-11-22T11:28:10;4.70;99.90
16408;DHT22;8313;49.894;8.084;2023-11-22T11:30:41;4.70;99.90
16408;DHT22;8313;49.894;8.084;2023-11-22T11:33:09;4.80;99.90
16408;DHT22;8313;49.894;8.084;2023-11-22T11:35:39;4.80;99.90
16408;DHT22;8313;49.894;8.084;2023-11-22T11:38:07;4.80;99.90
16408;DHT22;8313;49.894;8.084;2023-11-22T11:40:35;4.90;99.90
16408;DHT22;8313;49.894;8.084;2023-11-22T11:43:01;4.90;99.90
16408;DHT22;8313;49.894;8.084;2023-11-22T11:45:27;5.00;99.90
16408;DHT22;8313;49.894;8.084;2023-11-22T11:47:54;5.20;99.90
16408;DHT22;8313;49.894;8.084;2023-11-22T11:50:22;5.20;99.90
16408;DHT22;8313;49.894;8.084;2023-11-22T11:52:48;5.30;99.90
16408;DHT22;8313;49.894;8.084;2023-11-22T11:55:14;5.30;99.90
16408;DHT22;8313;49.894;8.084;2023-11-22T11:57:40;5.10;99.90
16408;DHT22;8313;49.894;8.084;2023-11-22T12:00:08;5.00;99.90
16408;DHT22;8313;49.894;8.084;2023-11-22T12:02:37;5.20;99.90
16408;DHT22;8313;49.894;8.084;2023-11-22T12:05:03;5.30;99.90
16408;DHT22;8313;49.894;8.084;2023-11-22T12:07:35;5.50;99.90
16408;DHT22;8313;49.894;8.084;2023-11-22T12:10:01;5.60;99.90
16408;DHT22;8313;49.894;8.084;2023-11-22T12:12:26;5.70;99.90
16408;DHT22;8313;49.894;8.084;2023-11-22T12:14:55;5.70;99.90
16408;DHT22;8313;49.894;8.084;2023-11-22T12:17:22;5.80;99.90
16408;DHT22;8313;49.894;8.084;2023-11-22T12:19:47;5.80;99.90
16408;DHT22;8313;49.894;8.084;2023-11-22T12:22:14;6.00;99.90
16408;DHT22;8313;49.894;8.084;2023-11-22T12:24:42;6.00;99.90
16408;DHT22;8313;49.894;8.084;2023-11-22T12:27:11;6.00;99.90
16408;DHT22;8313;49.894;8.084;2023-11-22T12:29:37;5.90;99.90
16408;DHT22;8313;49.894;8.084;2023-11-22T12:32:03;5.80;99.90
16408;DHT22;8313;49.894;8.084;2023-11-22T12:34:28;5.80;99.90
16408;DHT22;8313;49.894;8.084;2023-11-22T12:36:56;5.90;99.90
16408;DHT22;8313;49.894;8.084;2023-11-22T12:39:21;5.90;99.90
16408;DHT22;8313;49.894;8.084;2023-11-22T12:41:49;5.90;99.90
16408;DHT22;8313;49.894;8.084;2023-11-22T12:44:16;5.90;99.90
16408;DHT22;8313;49.894;8.084;2023-11-22T12:46:49;5.90;99.90
16408;DHT22;8313;49.894;8.084;2023-11-22T12:49:18;6.00;99.90
16408;DHT22;8313;49.894;8.084;2023-11-22T12:51:51;6.10;99.90
16408;DHT22;8313;49.894;8.084;2023-11-22T12:54:17;6.20;99.90
16408;DHT22;8313;49.894;8.084;2023-11-22T12:56:48;6.20;99.90
16408;DHT22;8313;49.894;8.084;2023-11-22T12:59:14;6.20;99.90
16408;DHT22;8313;49.894;8.084;2023-11-22T13:01:41;6.10;99.90
16408;DHT22;8313;49.894;8.084;2023-11-22T13:04:06;6.00;99.90
16408;DHT22;8313;49.894;8.084;2023-11-22T13:06:32;6.00;99.90
16408;DHT22;8313;49.894;8.084;2023-11-22T13:08:58;6.00;99.90
16408;DHT22;8313;49.894;8.084;2023-11-22T13:11:23;6.00;99.90
16408;DHT22;8313;49.894;8.084;2023-11-22T13:13:50;5.90;99.90
16408;DHT22;8313;49.894;8.084;2023-11-22T13:16:15;5.90;99.90
16408;DHT22;8313;49.894;8.084;2023-11-22T13:18:44;5.80;99.90
16408;DHT22;8313;49.894;8.084;2023-11-22T13:21:10;5.80;99.90
16408;DHT22;8313;49.894;8.084;2023-11-22T13:23:36;5.90;99.90
16408;DHT22;8313;49.894;8.084;2023-11-22T13:26:02;5.90;99.90
16408;DHT22;8313;49.894;8.084;2023-11-22T13:28:28;5.90;99.90
16408;DHT22;8313;49.894;8.084;2023-11-22T13:30:54;6.00;99.90
16408;DHT22;8313;49.894;8.084;2023-11-22T13:33:19;6.00;99.90
16408;DHT22;8313;49.894;8.084;2023-11-22T13:35:45;6.00;99.90
16408;DHT22;8313;49.894;8.084;2023-11-22T13:38:12;6.00;99.90
16408;DHT22;8313;49.894;8.084;2023-11-22T13:40:39;6.00;99.90
16408;DHT22;8313;49.894;8.084;2023-11-22T13:43:06;6.00;99.90
16408;DHT22;8313;49.894;8.084;2023-11-22T13:45:35;6.00;99.90
16408;DHT22;8313;49.894;8.084;2023-11-22T13:48:01;6.00;99.90
16408;DHT22;8313;49.894;8.084;2023-11-22T13:50:32;6.00;99.90
16408;DHT22;8313;49.894;8.084;2023-11-22T13:52:58;6.00;99.90
16408;DHT22;8313;49.894;8.084;2023-11-22T13:55:24;6.00;99.90
16408;DHT22;8313;49.894;8.084;2023-11-22T13:57:55;6.00;99.90
16408;DHT22;8313;49.894;8.084;2023-11-22T14:00:24;6.00;99.90
16408;DHT22;8313;49.894;8.084;2023-11-22T14:02:56;6.00;99.90
16408;DHT22;8313;49.894;8.084;2023-11-22T14:05:26;6.00;99.90
16408;DHT22;8313;49.894;8.084;2023-11-22T14:07:54;6.00;99.90
16408;DHT22;8313;49.894;8.084;2023-11-22T14:10:21;6.00;99.90
16408;DHT22;8313;49.894;8.084;2023-11-22T14:12:51;6.00;99.90
16408;DHT22;8313;49.894;8.084;2023-11-22T14:15:17;6.00;99.90
16408;DHT22;8313;49.894;8.084;2023-11-22T14:17:45;6.00;99.90
16408;DHT22;8313;49.894;8.084;2023-11-22T14:20:15;5.90;99.90
16408;DHT22;8313;49.894;8.084;2023-11-22T14:22:40;5.90;99.90
16408;DHT22;8313;49.894;8.084;2023-11-22T14:25:08;5.80;99.90
16408;DHT22;8313;49.894;8.084;2023-11-22T14:27:45;5.80;99.90
16408;DHT22;8313;49.894;8.084;2023-11-22T14:30:12;5.90;99.90
16408;DHT22;8313;49.894;8.084;2023-11-22T14:32:43;5.80;99.90
16408;DHT22;8313;49.894;8.084;2023-11-22T14:35:09;5.80;99.90
16408;DHT22;8313;49.894;8.084;2023-11-22T14:37:35;5.80;99.90
16408;DHT22;8313;49.894;8.084;2023-11-22T14:40:03;5.70;99.90
16408;DHT22;8313;49.894;8.084;2023-11-22T14:42:45;5.70;99.90
16408;DHT22;8313;49.894;8.084;2023-11-22T14:45:12;5.80;99.90
16408;DHT22;8313;49.894;8.084;2023-11-22T14:47:38;5.80;99.90
16408;DHT22;8313;49.894;8.084;2023-11-22T14:50:06;5.80;99.90
16408;DHT22;8313;49.894;8.084;2023-11-22T14:52:32;5.80;99.90
16408;DHT22;8313;49.894;8.084;2023-11-22T14:54:58;5.70;99.90
16408;DHT22;8313;49.894;8.084;2023-11-22T14:57:26;5.70;99.90
16408;DHT22;8313;49.894;8.084;2023-11-22T14:59:52;5.70;99.90
16408;DHT22;8313;49.894;8.084;2023-11-22T15:02:18;5.70;99.90
16408;DHT22;8313;49.894;8.084;2023-11-22T15:04:44;5.70;99.90
16408;DHT22;8313;49.894;8.084;2023-11-22T15:07:11;5.70;99.90
16408;DHT22;8313;49.894;8.084;2023-11-22T15:09:37;5.70;99.90
16408;DHT22;8313;49.894;8.084;2023-11-22T15:12:03;5.70;99.90
16408;DHT22;8313;49.894;8.084;2023-11-22T15:14:30;5.70;99.90
16408;DHT22;8313;49.894;8.084;2023-11-22T15:16:56;5.70;99.90
16408;DHT22;8313;49.894;8.084;2023-11-22T15:19:21;5.80;99.90
16408;DHT22;8313;49.894;8.084;2023-11-22T15:21:50;5.80;99.90
16408;DHT22;8313;49.894;8.084;2023-11-22T15:24:18;5.70;99.90
16408;DHT22;8313;49.894;8.084;2023-11-22T15:26:43;5.70;99.90
16408;DHT22;8313;49.894;8.084;2023-11-22T15:29:09;5.70;99.90
16408;DHT22;8313;49.894;8.084;2023-11-22T15:31:35;5.70;99.90
16408;DHT22;8313;49.894;8.084;2023-11-22T15:34:00;5.70;99.90
16408;DHT22;8313;49.894;8.084;2023-11-22T15:36:27;5.70;99.90
16408;DHT22;8313;49.894;8.084;2023-11-22T15:38:53;5.70;99.90
16408;DHT22;8313;49.894;8.084;2023-11-22T15:41:18;5.60;99.90
16408;DHT22;8313;49.894;8.084;2023-11-22T15:43:45;5.60;99.90
16408;DHT22;8313;49.894;8.084;2023-11-22T15:46:12;5.60;99.90
16408;DHT22;8313;49.894;8.084;2023-11-22T15:48:38;5.60;99.90
16408;DHT22;8313;49.894;8.084;2023-11-22T15:51:05;5.60;99.90
16408;DHT22;8313;49.894;8.084;2023-11-22T15:53:33;5.60;99.90
16408;DHT22;8313;49.894;8.084;2023-11-22T15:55:59;5.60;99.90
16408;DHT22;8313;49.894;8.084;2023-11-22T15:58:24;5.60;99.90
16408;DHT22;8313;49.894;8.084;2023-11-22T16:00:50;5.50;99.90
16408;DHT22;8313;49.894;8.084;2023-11-22T16:03:18;5.50;99.90
16408;DHT22;8313;49.894;8.084;2023-11-22T16:05:44;5.50;99.90
16408;DHT22;8313;49.894;8.084;2023-11-22T16:08:11;5.50;99.90